Time;durP1;ratioP1;P1;durP2;ratioP2;P2;SDS_P1;SDS_P2;PMS_P1;PMS_P2;Temp;Humidity;BMP_temperature;BMP_pressure;BME280_temperature;BME280_humidity;BME280_pressure;Samples;Min_cycle;Max_cycle;Signal;HPM_P1;HPM_P2
2024/03/17 00:00:54;;;;;;;11.88;3.20;;;10.80;99.90;;;;;;4938714;28;20053;-76
2024/03/17 00:03:22;;;;;;;13.40;3.55;;;10.80;99.90;;;;;;4954003;28;20055;-74
2024/03/17 00:05:56;;;;;;;3.92;1.25;;;10.80;99.90;;;;;;4937795;28;20049;-75
2024/03/17 00:08:24;;;;;;;10.60;2.97;;;10.80;99.90;;;;;;4978132;28;20055;-78
2024/03/17 00:10:51;;;;;;;6.60;2.22;;;10.80;99.90;;;;;;4994347;28;20497;-75
2024/03/17 00:13:19;;;;;;;5.10;1.65;;;10.90;99.90;;;;;;4970404;28;20092;-74
2024/03/17 00:15:45;;;;;;;5.40;1.10;;;10.90;99.90;;;;;;4970176;28;20042;-75
2024/03/17 00:18:12;;;;;;;4.00;1.15;;;10.90;99.90;;;;;;4985087;28;21641;-76
2024/03/17 00:20:39;;;;;;;1.17;0.50;;;10.90;99.90;;;;;;4986010;28;20039;-75
2024/03/17 00:23:09;;;;;;;2.83;0.95;;;11.00;99.90;;;;;;4985212;28;20046;-76
2024/03/17 00:25:35;;;;;;;1.63;0.32;;;10.90;99.90;;;;;;5001995;28;20406;-77
2024/03/17 00:28:03;;;;;;;2.03;0.40;;;11.10;99.90;;;;;;4972514;28;20046;-77
2024/03/17 00:30:31;;;;;;;3.55;0.85;;;11.00;99.90;;;;;;4970990;28;20038;-75
2024/03/17 00:32:59;;;;;;;2.83;0.90;;;10.90;99.90;;;;;;4983993;28;20128;-76
2024/03/17 00:35:25;;;;;;;1.98;0.65;;;10.80;99.90;;;;;;4971356;28;20043;-74
2024/03/17 00:37:53;;;;;;;2.05;0.70;;;10.90;99.90;;;;;;4983145;28;20062;-76
2024/03/17 00:40:21;;;;;;;2.80;0.70;;;10.90;99.90;;;;;;4985626;28;20034;-75
2024/03/17 00:42:48;;;;;;;1.98;0.65;;;10.80;99.90;;;;;;4969312;28;20047;-75
2024/03/17 00:45:15;;;;;;;2.85;0.60;;;10.80;99.90;;;;;;4984359;28;20031;-75
2024/03/17 00:47:43;;;;;;;5.75;1.38;;;10.70;99.90;;;;;;4983143;28;20497;-75
2024/03/17 00:50:11;;;;;;;8.98;1.90;;;10.60;99.90;;;;;;4968310;28;20031;-75
2024/03/17 00:52:39;;;;;;;5.53;1.77;;;10.50;99.90;;;;;;4968684;28;20046;-75
2024/03/17 00:55:06;;;;;;;5.05;1.25;;;10.50;99.90;;;;;;4965692;28;20104;-75
2024/03/17 00:57:34;;;;;;;2.95;0.70;;;10.50;99.90;;;;;;4988483;28;20066;-77
2024/03/17 01:00:02;;;;;;;2.90;0.80;;;10.40;99.90;;;;;;4973098;28;20434;-75
2024/03/17 01:02:29;;;;;;;2.65;0.82;;;10.40;99.90;;;;;;4989604;28;20034;-78
2024/03/17 01:04:56;;;;;;;11.63;2.35;;;10.30;99.90;;;;;;4980490;28;20053;-79
2024/03/17 01:07:22;;;;;;;7.60;1.95;;;10.30;99.90;;;;;;4979777;28;20062;-79
2024/03/17 01:09:50;;;;;;;9.77;2.10;;;10.20;99.90;;;;;;4976524;28;20092;-78
2024/03/17 01:12:16;;;;;;;6.55;1.67;;;10.20;99.90;;;;;;4969648;28;20056;-79
2024/03/17 01:14:45;;;;;;;4.75;1.20;;;10.20;99.90;;;;;;4978034;28;20050;-78
2024/03/17 01:17:12;;;;;;;2.95;1.08;;;10.10;99.90;;;;;;4990424;28;20053;-78
2024/03/17 01:19:40;;;;;;;5.20;1.50;;;10.10;99.90;;;;;;4989202;28;20096;-79
2024/03/17 01:22:06;;;;;;;5.53;1.30;;;10.10;99.90;;;;;;4972845;28;20043;-79
2024/03/17 01:24:34;;;;;;;6.30;1.48;;;10.00;99.90;;;;;;4990309;28;20074;-78
2024/03/17 01:27:01;;;;;;;5.22;1.25;;;9.90;99.90;;;;;;4990076;28;20417;-78
2024/03/17 01:29:29;;;;;;;2.78;1.05;;;9.90;99.90;;;;;;4987208;28;20072;-78
2024/03/17 01:31:57;;;;;;;2.40;1.05;;;10.00;99.90;;;;;;4984473;28;20042;-78
2024/03/17 01:34:24;;;;;;;2.13;0.52;;;9.90;99.90;;;;;;4991494;28;20401;-79
2024/03/17 01:36:51;;;;;;;5.10;0.70;;;9.90;99.90;;;;;;4989989;28;20054;-78
2024/03/17 01:39:18;;;;;;;3.80;0.98;;;9.60;99.90;;;;;;5005193;28;20050;-78
2024/03/17 01:41:45;;;;;;;2.75;0.70;;;9.80;99.90;;;;;;4969972;28;20046;-79
2024/03/17 01:44:26;;;;;;;1.85;0.70;;;9.90;99.90;;;;;;4991123;28;20531;-79
2024/03/17 01:46:53;;;;;;;1.45;0.50;;;11.50;99.90;;;;;;5005770;28;20137;-79
2024/03/17 01:49:24;;;;;;;1.55;0.50;;;8.80;99.90;;;;;;4987117;28;20050;-78
2024/03/17 01:51:52;;;;;;;2.13;0.68;;;9.90;99.90;;;;;;4988899;28;20066;-78
2024/03/17 01:54:20;;;;;;;1.52;0.70;;;9.90;99.90;;;;;;4987872;28;20105;-79
2024/03/17 01:56:47;;;;;;;1.13;0.57;;;9.90;99.90;;;;;;5001672;28;20580;-77
2024/03/17 01:59:15;;;;;;;1.45;0.60;;;9.90;99.90;;;;;;4987194;28;20134;-79
2024/03/17 02:01:41;;;;;;;2.03;0.75;;;10.00;99.90;;;;;;4972982;28;20531;-79
2024/03/17 02:04:10;;;;;;;2.38;1.15;;;10.00;99.90;;;;;;4976800;28;20129;-78
2024/03/17 02:06:39;;;;;;;3.72;0.90;;;9.90;99.90;;;;;;4976150;28;20053;-77
2024/03/17 02:09:07;;;;;;;3.10;1.00;;;10.10;99.90;;;;;;4958072;28;20035;-78
2024/03/17 02:11:34;;;;;;;1.55;0.82;;;10.00;99.90;;;;;;4959046;28;20047;-75
2024/03/17 02:14:02;;;;;;;2.90;1.08;;;10.10;99.90;;;;;;4963729;28;20629;-75
2024/03/17 02:16:28;;;;;;;1.67;0.88;;;10.10;99.90;;;;;;4949228;28;20090;-75
2024/03/17 02:18:56;;;;;;;4.25;1.35;;;10.10;99.90;;;;;;4951079;28;20458;-77
2024/03/17 02:21:23;;;;;;;2.63;1.15;;;10.10;99.90;;;;;;4950818;28;20035;-73
2024/03/17 02:23:54;;;;;;;2.85;1.20;;;10.00;99.90;;;;;;4936579;28;20133;-76
2024/03/17 02:26:22;;;;;;;3.65;1.55;;;10.00;99.90;;;;;;4932653;28;20098;-73
2024/03/17 02:28:50;;;;;;;5.30;1.50;;;10.00;99.90;;;;;;4949571;28;20630;-75
2024/03/17 02:31:17;;;;;;;3.70;1.70;;;10.00;99.90;;;;;;4933252;28;20053;-75
2024/03/17 02:33:45;;;;;;;3.40;1.35;;;9.90;99.90;;;;;;4935418;28;20675;-74
2024/03/17 02:36:12;;;;;;;3.00;1.40;;;10.00;99.90;;;;;;4965749;28;20062;-75
2024/03/17 02:41:28;;;;;;;2.40;1.10;;;9.90;99.90;;;;;;4937374;28;20050;-76
2024/03/17 02:43:56;;;;;;;2.72;1.30;;;9.90;99.90;;;;;;4944592;28;20043;-75
2024/03/17 02:46:24;;;;;;;3.03;1.45;;;9.90;99.90;;;;;;4931897;28;20086;-74
2024/03/17 02:48:53;;;;;;;3.08;1.30;;;10.00;99.90;;;;;;4952980;28;20054;-75
2024/03/17 02:51:22;;;;;;;2.63;1.30;;;10.00;99.90;;;;;;4946454;28;20039;-76
2024/03/17 02:53:50;;;;;;;4.03;1.70;;;10.00;99.90;;;;;;4947760;28;20043;-77
2024/03/17 02:56:19;;;;;;;4.47;1.42;;;9.90;99.90;;;;;;4929486;28;20055;-75
2024/03/17 02:58:48;;;;;;;3.55;1.58;;;9.90;99.90;;;;;;4937530;28;20069;-75
2024/03/17 03:01:17;;;;;;;3.05;1.23;;;9.90;99.90;;;;;;4933306;28;20042;-75
2024/03/17 03:03:45;;;;;;;3.35;1.40;;;9.80;99.90;;;;;;4946725;28;20113;-74
2024/03/17 03:06:13;;;;;;;2.75;1.13;;;9.80;99.90;;;;;;4936401;28;20053;-75
2024/03/17 03:08:41;;;;;;;2.30;1.58;;;9.80;99.90;;;;;;4946131;28;20089;-74
2024/03/17 03:11:10;;;;;;;2.55;1.40;;;9.80;99.90;;;;;;4927913;28;20043;-74
2024/03/17 03:13:39;;;;;;;2.47;1.40;;;9.80;99.90;;;;;;4943425;28;20058;-75
2024/03/17 03:16:10;;;;;;;3.05;1.45;;;9.90;99.90;;;;;;4929777;28;20055;-74
2024/03/17 03:18:38;;;;;;;2.13;1.40;;;9.90;99.90;;;;;;4939461;28;20047;-76
2024/03/17 03:21:06;;;;;;;3.83;1.40;;;9.80;99.90;;;;;;4943351;28;20458;-74
2024/03/17 03:23:36;;;;;;;2.95;1.65;;;9.80;99.90;;;;;;4948920;28;20053;-74
2024/03/17 03:26:05;;;;;;;2.95;1.55;;;9.80;99.90;;;;;;4952719;28;20050;-74
2024/03/17 03:28:34;;;;;;;4.18;1.73;;;9.80;99.90;;;;;;4965488;28;20035;-76
2024/03/17 03:31:02;;;;;;;2.17;1.30;;;9.80;99.90;;;;;;4947059;28;20051;-75
2024/03/17 03:33:32;;;;;;;3.47;1.83;;;9.80;99.90;;;;;;4950018;28;20042;-76
2024/03/17 03:35:59;;;;;;;3.35;1.50;;;9.80;99.90;;;;;;4965919;28;20070;-76
2024/03/17 03:38:27;;;;;;;3.00;1.77;;;9.80;99.90;;;;;;4939770;28;20039;-74
2024/03/17 03:40:55;;;;;;;4.70;2.03;;;9.80;99.90;;;;;;4950769;28;20047;-76
2024/03/17 03:43:22;;;;;;;5.47;1.63;;;9.80;99.90;;;;;;4949211;28;20066;-76
2024/03/17 03:45:50;;;;;;;2.55;1.50;;;9.80;99.90;;;;;;4948294;28;20051;-76
2024/03/17 03:48:18;;;;;;;2.20;1.10;;;9.80;99.90;;;;;;4950007;28;20035;-75
2024/03/17 03:50:47;;;;;;;3.80;1.02;;;9.80;99.90;;;;;;4921577;28;20469;-78
2024/03/17 03:53:15;;;;;;;2.08;0.85;;;9.90;99.90;;;;;;4953225;28;20057;-75
2024/03/17 03:55:42;;;;;;;1.98;1.00;;;9.90;99.90;;;;;;4955553;28;20067;-76
2024/03/17 03:58:12;;;;;;;1.38;0.75;;;9.90;99.90;;;;;;4950407;28;20043;-76
2024/03/17 04:00:39;;;;;;;1.85;0.68;;;9.90;99.90;;;;;;4947243;28;20062;-76
2024/03/17 04:03:07;;;;;;;1.63;0.65;;;9.80;99.90;;;;;;4942538;28;20062;-74
2024/03/17 04:05:34;;;;;;;1.75;1.02;;;9.90;99.90;;;;;;4957224;28;20054;-77
2024/03/17 04:08:04;;;;;;;1.70;0.93;;;9.90;99.90;;;;;;4965245;28;20039;-75
2024/03/17 04:10:32;;;;;;;1.50;0.82;;;9.90;99.90;;;;;;4972690;28;20054;-75
2024/03/17 04:12:59;;;;;;;2.60;1.10;;;9.90;99.90;;;;;;4970226;28;20040;-76
2024/03/17 04:15:26;;;;;;;1.42;0.77;;;9.70;99.90;;;;;;4961672;28;20513;-75
2024/03/17 04:17:54;;;;;;;1.75;1.10;;;9.70;99.90;;;;;;4986775;28;20043;-75
2024/03/17 04:20:21;;;;;;;1.30;0.80;;;9.70;99.90;;;;;;4968515;28;20035;-76
2024/03/17 04:22:49;;;;;;;1.88;1.13;;;9.70;99.90;;;;;;4985438;28;20455;-77
2024/03/17 04:25:18;;;;;;;1.98;1.05;;;9.70;99.90;;;;;;4982217;28;20094;-76
2024/03/17 04:27:45;;;;;;;1.83;1.27;;;9.70;99.90;;;;;;4984313;28;20389;-75
2024/03/17 04:30:14;;;;;;;2.85;1.52;;;9.60;99.90;;;;;;4983656;28;20046;-76
2024/03/17 04:32:41;;;;;;;2.60;1.23;;;9.60;99.90;;;;;;4974746;28;20639;-76
2024/03/17 04:35:09;;;;;;;2.50;1.42;;;9.50;99.90;;;;;;4986155;28;20057;-77
2024/03/17 04:37:38;;;;;;;3.20;1.77;;;9.50;99.90;;;;;;4983452;28;20449;-76
2024/03/17 04:40:10;;;;;;;2.42;1.10;;;9.50;99.90;;;;;;4987110;28;20127;-76
2024/03/17 04:42:39;;;;;;;2.28;1.52;;;9.50;99.90;;;;;;4985746;28;20082;-76
2024/03/17 04:45:10;;;;;;;2.35;1.10;;;9.40;99.90;;;;;;4973344;28;21328;-75
2024/03/17 04:47:38;;;;;;;3.00;1.00;;;9.50;99.90;;;;;;4987197;28;20054;-77
2024/03/17 04:50:07;;;;;;;2.22;1.42;;;9.50;99.90;;;;;;4986927;28;20054;-76
2024/03/17 04:52:34;;;;;;;1.55;0.82;;;9.40;99.90;;;;;;4970032;28;20108;-76
2024/03/17 04:55:03;;;;;;;2.00;1.25;;;9.40;99.90;;;;;;4987240;28;20058;-77
2024/03/17 04:57:31;;;;;;;2.15;0.85;;;9.30;99.90;;;;;;5001655;28;20051;-76
2024/03/17 05:00:00;;;;;;;3.92;1.10;;;9.20;99.90;;;;;;4983929;28;20409;-75
2024/03/17 05:02:28;;;;;;;2.10;1.25;;;9.20;99.90;;;;;;4996180;28;20053;-76
2024/03/17 05:04:56;;;;;;;2.85;1.25;;;9.10;99.90;;;;;;4983891;28;20428;-76
2024/03/17 05:07:24;;;;;;;2.38;1.30;;;9.10;99.90;;;;;;4984562;28;20047;-75
2024/03/17 05:09:51;;;;;;;2.13;1.15;;;9.10;99.90;;;;;;4989434;28;20560;-76
2024/03/17 05:12:19;;;;;;;2.28;1.05;;;9.10;99.90;;;;;;4998316;28;20039;-77
2024/03/17 05:14:46;;;;;;;2.67;1.73;;;9.10;99.90;;;;;;4987709;28;20480;-76
2024/03/17 05:17:15;;;;;;;2.90;1.90;;;9.00;99.90;;;;;;4969562;28;20061;-76
2024/03/17 05:19:43;;;;;;;3.00;1.75;;;9.00;99.90;;;;;;4985028;28;20050;-76
2024/03/17 05:22:10;;;;;;;3.13;1.92;;;9.00;99.90;;;;;;4982176;28;20043;-76
2024/03/17 05:24:37;;;;;;;5.25;1.77;;;9.00;99.90;;;;;;4966232;28;20057;-76
2024/03/17 05:27:04;;;;;;;3.97;1.52;;;9.00;99.90;;;;;;4986774;28;20054;-77
2024/03/17 05:29:33;;;;;;;6.07;2.03;;;9.00;99.90;;;;;;4978863;28;20043;-76
2024/03/17 05:32:02;;;;;;;2.80;1.52;;;9.00;99.90;;;;;;4985851;28;20046;-77
2024/03/17 05:34:32;;;;;;;2.20;0.90;;;9.00;99.90;;;;;;4983071;28;20414;-75
2024/03/17 05:36:59;;;;;;;2.58;1.38;;;9.00;99.90;;;;;;4983419;28;20050;-76
2024/03/17 05:39:29;;;;;;;3.63;1.40;;;9.00;99.90;;;;;;4983125;28;20468;-76
2024/03/17 05:41:56;;;;;;;4.22;1.27;;;8.90;99.90;;;;;;4983507;28;20034;-74
2024/03/17 05:44:24;;;;;;;3.35;1.48;;;8.90;99.90;;;;;;4978238;28;20053;-75
2024/03/17 05:46:53;;;;;;;4.22;1.60;;;8.90;99.90;;;;;;4979209;28;20522;-75
2024/03/17 05:49:21;;;;;;;4.05;1.63;;;8.90;99.90;;;;;;4969993;28;20049;-74
2024/03/17 05:51:50;;;;;;;2.60;1.35;;;8.90;99.90;;;;;;4972119;28;20409;-74
2024/03/17 05:54:17;;;;;;;3.65;1.35;;;8.90;99.90;;;;;;4982816;28;20517;-74
2024/03/17 05:56:44;;;;;;;2.35;1.00;;;8.90;99.90;;;;;;4966199;28;20426;-75
2024/03/17 05:59:12;;;;;;;2.22;1.25;;;8.90;99.90;;;;;;4982594;28;20038;-76
2024/03/17 06:01:39;;;;;;;3.63;1.58;;;8.80;99.90;;;;;;4963335;28;20387;-74
2024/03/17 06:04:07;;;;;;;4.65;1.27;;;8.90;99.90;;;;;;4967106;28;20031;-75
2024/03/17 06:06:34;;;;;;;2.40;1.10;;;8.90;99.90;;;;;;4982030;28;20085;-78
2024/03/17 06:09:04;;;;;;;4.18;0.93;;;8.90;99.90;;;;;;4934841;28;20049;-73
2024/03/17 06:11:34;;;;;;;2.63;0.85;;;9.00;99.90;;;;;;4946506;28;20054;-75
2024/03/17 06:14:05;;;;;;;2.17;1.08;;;8.90;99.90;;;;;;4952085;28;20050;-76
2024/03/17 06:16:33;;;;;;;6.25;0.70;;;8.90;99.90;;;;;;4942947;28;20146;-76
2024/03/17 06:19:01;;;;;;;3.63;0.73;;;8.90;99.90;;;;;;4946082;28;20039;-76
2024/03/17 06:21:29;;;;;;;1.83;0.80;;;9.00;99.90;;;;;;4953458;28;20051;-74
2024/03/17 06:23:57;;;;;;;2.95;1.15;;;9.00;99.90;;;;;;4932783;28;20043;-75
2024/03/17 06:26:26;;;;;;;3.50;0.93;;;9.00;99.90;;;;;;4931887;28;20046;-74
2024/03/17 06:28:54;;;;;;;3.25;0.55;;;9.10;99.90;;;;;;4942653;28;20043;-78
2024/03/17 06:31:22;;;;;;;2.60;0.93;;;9.20;99.90;;;;;;4945707;28;20106;-75
2024/03/17 06:33:50;;;;;;;2.65;1.20;;;9.30;99.90;;;;;;4948211;28;20040;-74
2024/03/17 06:36:17;;;;;;;1.58;0.80;;;9.20;99.90;;;;;;4942828;28;20042;-75
2024/03/17 06:38:46;;;;;;;3.78;1.00;;;9.20;99.90;;;;;;4947558;28;20430;-75
2024/03/17 06:41:15;;;;;;;1.85;0.90;;;9.20;99.90;;;;;;4946525;28;20039;-76
2024/03/17 06:43:44;;;;;;;2.67;0.98;;;9.20;99.90;;;;;;4930293;28;20411;-74
2024/03/17 06:46:11;;;;;;;3.03;0.80;;;9.30;99.90;;;;;;4949506;28;20046;-75
2024/03/17 06:48:39;;;;;;;2.55;0.77;;;9.40;99.90;;;;;;4938101;28;20047;-75
2024/03/17 06:51:06;;;;;;;3.28;0.95;;;9.50;99.90;;;;;;4937374;28;20436;-74
2024/03/17 06:53:34;;;;;;;3.15;0.80;;;9.50;99.90;;;;;;5036040;23;20050;-82
2024/03/17 06:56:02;;;;;;;1.92;0.85;;;9.60;99.90;;;;;;4990470;28;20078;-81
2024/03/17 06:58:30;;;;;;;2.45;0.50;;;9.60;99.90;;;;;;4995037;28;20038;-79
2024/03/17 07:01:01;;;;;;;3.50;0.77;;;9.60;99.90;;;;;;4986144;28;20070;-83
2024/03/17 07:03:30;;;;;;;2.88;0.80;;;9.70;99.90;;;;;;4986840;28;20042;-82
2024/03/17 07:06:01;;;;;;;2.53;0.95;;;9.80;99.90;;;;;;5009603;28;20042;-82
2024/03/17 07:08:30;;;;;;;1.55;0.57;;;9.80;99.90;;;;;;4991103;28;20038;-81
2024/03/17 07:11:02;;;;;;;2.95;0.90;;;9.80;99.90;;;;;;4990269;28;20054;-80
2024/03/17 07:13:32;;;;;;;2.60;0.90;;;9.60;99.90;;;;;;4994094;28;20125;-81
2024/03/17 07:16:01;;;;;;;2.15;0.77;;;10.20;99.90;;;;;;4975640;28;20061;-81
2024/03/17 07:18:30;;;;;;;2.13;0.98;;;9.90;99.90;;;;;;4973699;28;20122;-78
2024/03/17 07:20:58;;;;;;;3.53;0.95;;;9.90;99.90;;;;;;4983336;28;20053;-79
2024/03/17 07:23:26;;;;;;;4.03;0.77;;;10.00;99.90;;;;;;4995995;28;20520;-82
2024/03/17 07:25:55;;;;;;;3.45;1.48;;;10.10;99.90;;;;;;4997208;28;20042;-83
2024/03/17 07:28:23;;;;;;;2.72;1.15;;;10.20;99.90;;;;;;4974629;28;20517;-73
2024/03/17 07:30:52;;;;;;;3.72;1.08;;;10.30;99.90;;;;;;4986017;28;20499;-75
2024/03/17 07:33:22;;;;;;;1.75;0.80;;;10.30;99.50;;;;;;4973152;28;20417;-73
2024/03/17 07:35:51;;;;;;;1.98;0.70;;;10.40;99.20;;;;;;4985742;28;20051;-76
2024/03/17 07:38:19;;;;;;;1.80;0.90;;;10.40;98.70;;;;;;4972330;28;20398;-73
2024/03/17 07:40:58;;;;;;;2.22;0.90;;;10.40;98.40;;;;;;4984926;28;20074;-73
2024/03/17 07:43:26;;;;;;;1.50;0.50;;;10.30;98.00;;;;;;4968698;28;20445;-73
2024/03/17 07:46:01;;;;;;;1.83;0.63;;;10.30;98.20;;;;;;4987872;28;20042;-75
2024/03/17 07:48:31;;;;;;;4.72;0.70;;;10.40;98.20;;;;;;4984030;28;20406;-73
2024/03/17 07:51:00;;;;;;;1.50;0.40;;;10.50;97.80;;;;;;4983800;28;20180;-76
2024/03/17 07:53:28;;;;;;;1.80;0.50;;;10.70;97.70;;;;;;4989144;28;20086;-77
2024/03/17 07:56:00;;;;;;;2.83;0.40;;;10.70;97.00;;;;;;4999246;28;20065;-74
2024/03/17 07:58:28;;;;;;;1.63;0.67;;;10.90;96.30;;;;;;4984715;28;20046;-76
2024/03/17 08:01:00;;;;;;;1.85;0.43;;;10.90;95.40;;;;;;4985710;28;20421;-75
2024/03/17 08:03:31;;;;;;;2.03;0.80;;;10.90;95.30;;;;;;4992035;28;20563;-78
2024/03/17 08:05:59;;;;;;;2.60;0.55;;;11.00;94.80;;;;;;4991277;28;20425;-79
2024/03/17 08:08:26;;;;;;;3.20;0.45;;;11.00;95.20;;;;;;4968184;28;20108;-77
2024/03/17 08:10:54;;;;;;;1.60;0.47;;;11.00;94.90;;;;;;4986722;28;20070;-79
2024/03/17 08:13:23;;;;;;;2.40;0.50;;;10.90;94.20;;;;;;4987708;28;20042;-79
2024/03/17 08:15:57;;;;;;;2.45;0.40;;;11.00;94.20;;;;;;4984912;28;20071;-77
2024/03/17 08:18:25;;;;;;;1.52;0.40;;;11.00;94.10;;;;;;4984007;28;20086;-82
2024/03/17 08:20:54;;;;;;;1.90;0.40;;;11.10;93.90;;;;;;4989674;28;20051;-79
2024/03/17 08:23:22;;;;;;;2.20;0.77;;;11.20;93.20;;;;;;4981980;28;20084;-78
2024/03/17 08:25:54;;;;;;;1.98;0.43;;;11.10;92.90;;;;;;4986150;28;20042;-79
2024/03/17 08:28:23;;;;;;;2.00;0.30;;;11.20;93.10;;;;;;4982518;28;20089;-80
2024/03/17 08:30:54;;;;;;;3.10;0.43;;;11.40;92.10;;;;;;4988355;28;20089;-79
2024/03/17 08:33:23;;;;;;;1.25;0.50;;;11.40;91.70;;;;;;4988238;28;20523;-77
2024/03/17 08:35:56;;;;;;;1.70;0.30;;;11.50;92.20;;;;;;4965738;28;20104;-77
2024/03/17 08:38:24;;;;;;;0.93;0.40;;;11.50;91.90;;;;;;4966811;28;20046;-80
2024/03/17 08:40:52;;;;;;;2.42;0.25;;;11.40;90.60;;;;;;4991098;28;20054;-76
2024/03/17 08:43:21;;;;;;;1.15;0.40;;;11.30;90.60;;;;;;4980894;28;20130;-82
2024/03/17 08:45:58;;;;;;;1.77;0.63;;;11.30;89.60;;;;;;4988098;28;20042;-82
2024/03/17 08:48:26;;;;;;;2.50;0.40;;;11.30;90.10;;;;;;4993980;28;20050;-82
2024/03/17 08:50:56;;;;;;;1.38;0.50;;;11.50;90.80;;;;;;4997338;28;20054;-78
2024/03/17 08:53:26;;;;;;;1.23;0.35;;;11.30;90.00;;;;;;5001049;28;20065;-80
2024/03/17 08:55:54;;;;;;;1.63;0.30;;;11.50;90.10;;;;;;4987853;28;20055;-79
2024/03/17 08:58:23;;;;;;;1.85;0.32;;;10.30;88.70;;;;;;4981029;28;20038;-81
2024/03/17 09:00:54;;;;;;;1.98;0.22;;;11.50;88.60;;;;;;5006166;28;20074;-79
2024/03/17 09:03:22;;;;;;;1.48;0.30;;;11.70;89.10;;;;;;4984016;28;20062;-80
2024/03/17 09:05:55;;;;;;;2.22;0.30;;;11.80;88.50;;;;;;4983029;28;20058;-83
2024/03/17 09:08:27;;;;;;;3.38;0.40;;;11.70;86.50;;;;;;5007251;28;20410;-80
2024/03/17 09:10:58;;;;;;;1.88;0.40;;;11.80;85.90;;;;;;4985552;28;20089;-79
2024/03/17 09:13:26;;;;;;;0.88;0.30;;;12.10;85.60;;;;;;4996672;28;20046;-82
2024/03/17 09:15:59;;;;;;;2.88;0.30;;;11.80;83.10;;;;;;4982665;28;20105;-77
2024/03/17 09:18:28;;;;;;;1.83;0.40;;;11.90;79.30;;;;;;4998580;28;20046;-81
2024/03/17 09:21:04;;;;;;;1.48;0.20;;;11.90;81.00;;;;;;4979833;28;20566;-82
2024/03/17 09:23:34;;;;;;;2.13;0.25;;;12.20;81.00;;;;;;4996514;28;20042;-80
2024/03/17 09:26:04;;;;;;;1.35;0.52;;;12.10;80.10;;;;;;4995170;28;20085;-80
2024/03/17 09:28:33;;;;;;;3.50;0.20;;;12.40;78.00;;;;;;4982133;28;20050;-78
2024/03/17 09:31:06;;;;;;;7.85;0.63;;;11.90;78.10;;;;;;4984172;28;20026;-83
2024/03/17 09:33:36;;;;;;;2.88;0.20;;;11.90;79.60;;;;;;4981078;28;20047;-80
2024/03/17 09:36:07;;;;;;;1.70;0.40;;;12.20;79.30;;;;;;5000199;28;20035;-79
2024/03/17 09:38:37;;;;;;;0.98;0.20;;;12.00;77.60;;;;;;4998581;28;20069;-81
2024/03/17 09:41:04;;;;;;;2.45;0.20;;;12.10;78.60;;;;;;5000496;28;20059;-79
2024/03/17 09:43:36;;;;;;;2.53;0.35;;;12.10;80.10;;;;;;5005284;28;20102;-80
2024/03/17 09:46:05;;;;;;;1.73;0.30;;;12.20;80.10;;;;;;5002537;28;20023;-81
2024/03/17 09:51:06;;;;;;;1.20;0.20;;;12.30;79.00;;;;;;4999521;28;20035;-80
2024/03/17 09:53:36;;;;;;;3.80;0.40;;;12.30;80.00;;;;;;5015122;28;20454;-78
2024/03/17 09:56:09;;;;;;;1.67;0.30;;;12.10;80.20;;;;;;5002740;28;20047;-79
2024/03/17 09:58:37;;;;;;;1.58;0.40;;;12.20;81.20;;;;;;4982777;28;20038;-81
2024/03/17 10:01:05;;;;;;;3.47;0.70;;;12.40;80.40;;;;;;4982817;28;20066;-80
2024/03/17 10:03:46;;;;;;;2.55;0.30;;;12.40;79.90;;;;;;4980897;28;20050;-77
2024/03/17 10:06:14;;;;;;;1.92;0.40;;;12.70;79.90;;;;;;4983204;28;20121;-77
2024/03/17 10:08:47;;;;;;;3.05;0.80;;;12.40;79.50;;;;;;4987223;28;20520;-77
2024/03/17 10:11:16;;;;;;;3.28;0.50;;;12.60;80.10;;;;;;5014205;28;20106;-78
2024/03/17 10:13:44;;;;;;;2.35;0.30;;;12.60;77.30;;;;;;5007700;28;20046;-82
2024/03/17 10:16:25;;;;;;;1.90;0.43;;;12.40;77.30;;;;;;4957591;28;20062;-80
2024/03/17 10:19:07;;;;;;;2.90;0.32;;;12.40;77.10;;;;;;4979276;28;20050;-79
2024/03/17 10:21:35;;;;;;;2.65;0.30;;;12.40;75.60;;;;;;4977866;28;20059;-80
2024/03/17 10:24:11;;;;;;;2.53;0.50;;;12.40;75.60;;;;;;4994039;28;20056;-80
2024/03/17 10:26:46;;;;;;;1.95;0.30;;;12.60;75.30;;;;;;4993262;28;20046;-81
2024/03/17 10:29:33;;;;;;;1.95;0.30;;;12.60;75.70;;;;;;4979260;28;20050;-78
2024/03/17 10:32:03;;;;;;;1.25;0.30;;;12.90;75.30;;;;;;4975778;28;20042;-80
2024/03/17 10:34:35;;;;;;;2.30;0.40;;;12.80;74.40;;;;;;4976435;28;20050;-78
2024/03/17 10:37:11;;;;;;;2.72;0.68;;;12.70;75.20;;;;;;4985637;28;20047;-81
2024/03/17 10:39:41;;;;;;;2.67;0.52;;;12.90;75.30;;;;;;4995655;28;20038;-80
2024/03/17 10:42:10;;;;;;;5.82;0.22;;;12.80;73.90;;;;;;4980191;28;20169;-81
2024/03/17 10:44:38;;;;;;;2.05;0.25;;;12.90;73.70;;;;;;4983763;28;20061;-79
2024/03/17 10:47:09;;;;;;;2.97;0.25;;;12.60;72.60;;;;;;4974827;28;20038;-82
2024/03/17 10:49:39;;;;;;;2.38;0.30;;;12.70;73.90;;;;;;5010943;28;20121;-78
2024/03/17 10:52:09;;;;;;;1.90;0.20;;;12.80;72.60;;;;;;5011376;28;20046;-80
2024/03/17 10:54:36;;;;;;;2.55;0.85;;;12.90;73.40;;;;;;4949678;28;20051;-78
2024/03/17 10:57:25;;;;;;;2.05;0.28;;;12.90;72.80;;;;;;4975364;28;20070;-84
2024/03/17 10:59:54;;;;;;;0.70;0.20;;;12.90;72.00;;;;;;5009674;28;20054;-80
2024/03/17 11:02:27;;;;;;;0.85;0.20;;;13.00;71.30;;;;;;4976853;28;20035;-77
2024/03/17 11:04:57;;;;;;;3.20;0.30;;;13.10;71.80;;;;;;4967669;28;20054;-78
2024/03/17 11:07:26;;;;;;;1.48;0.30;;;13.10;71.20;;;;;;5009562;28;20046;-80
2024/03/17 11:09:59;;;;;;;2.40;0.30;;;13.00;71.20;;;;;;4982590;28;20074;-79
2024/03/17 11:12:49;;;;;;;3.22;0.30;;;13.00;72.20;;;;;;4996057;28;20099;-80
2024/03/17 11:15:41;;;;;;;2.10;0.40;;;13.10;72.00;;;;;;4974058;28;20042;-82
2024/03/17 11:18:31;;;;;;;1.20;0.28;;;13.20;71.00;;;;;;4981594;28;20050;-79
2024/03/17 11:21:01;;;;;;;3.25;0.40;;;13.30;71.30;;;;;;5002867;28;20047;-79
2024/03/17 11:23:30;;;;;;;3.22;0.30;;;13.60;72.40;;;;;;4973214;28;20042;-77
2024/03/17 11:25:58;;;;;;;1.80;0.60;;;13.80;73.30;;;;;;4990163;28;20046;-77
2024/03/17 11:28:48;;;;;;;3.33;0.40;;;13.60;70.90;;;;;;4967626;28;20045;-78
2024/03/17 11:31:37;;;;;;;2.35;0.50;;;13.40;72.10;;;;;;4981108;28;20101;-79
2024/03/17 11:34:07;;;;;;;2.00;0.45;;;13.40;69.60;;;;;;4980863;28;20049;-82
2024/03/17 11:36:38;;;;;;;2.70;0.30;;;13.30;70.00;;;;;;4999200;28;20122;-80
2024/03/17 11:39:16;;;;;;;1.65;0.55;;;13.50;71.50;;;;;;4982699;28;20046;-78
2024/03/17 11:41:46;;;;;;;2.25;0.30;;;13.50;71.70;;;;;;4991763;28;20049;-78
2024/03/17 11:44:18;;;;;;;2.67;0.30;;;13.20;71.70;;;;;;5009075;23;20164;-79
2024/03/17 11:46:46;;;;;;;2.47;0.40;;;13.50;71.40;;;;;;5025237;28;20029;-80
2024/03/17 11:49:18;;;;;;;2.05;0.50;;;14.10;69.10;;;;;;5041022;28;20471;-77
2024/03/17 11:51:47;;;;;;;5.00;1.33;;;13.60;71.00;;;;;;5010623;28;20022;-78
2024/03/17 11:54:19;;;;;;;2.40;0.40;;;13.30;71.50;;;;;;5027811;28;20109;-79
2024/03/17 11:56:49;;;;;;;1.83;0.40;;;13.20;70.70;;;;;;5027723;28;20037;-79
2024/03/17 11:59:20;;;;;;;1.15;0.30;;;12.80;70.50;;;;;;5024422;28;20089;-81
2024/03/17 12:01:48;;;;;;;2.03;0.40;;;14.10;72.50;;;;;;5007763;28;20030;-79
2024/03/17 12:04:16;;;;;;;1.08;0.30;;;13.30;69.90;;;;;;5028610;28;20062;-77
2024/03/17 12:06:48;;;;;;;2.10;0.45;;;13.40;70.60;;;;;;5038871;28;20033;-78
2024/03/17 12:09:22;;;;;;;1.17;0.30;;;13.00;70.90;;;;;;5030930;28;20038;-80
2024/03/17 12:11:52;;;;;;;3.08;0.43;;;13.70;71.40;;;;;;5038273;28;20677;-79
2024/03/17 12:14:22;;;;;;;2.72;0.47;;;13.60;71.00;;;;;;5019014;28;20045;-80
2024/03/17 12:16:51;;;;;;;0.93;0.50;;;13.50;71.30;;;;;;5030594;28;20029;-77
2024/03/17 12:19:20;;;;;;;2.08;0.30;;;13.60;70.10;;;;;;5015966;28;20042;-79
2024/03/17 12:21:49;;;;;;;3.17;0.50;;;13.60;70.20;;;;;;5029991;28;20052;-80
2024/03/17 12:24:19;;;;;;;2.35;1.00;;;13.40;70.50;;;;;;5032050;28;20013;-77
2024/03/17 12:26:47;;;;;;;2.40;0.40;;;13.40;70.20;;;;;;5264829;22;20061;-80
2024/03/17 12:29:29;;;;;;;2.67;0.30;;;13.40;70.10;;;;;;5029420;28;20034;-82
2024/03/17 12:31:58;;;;;;;1.55;0.30;;;13.70;70.30;;;;;;5040518;28;20041;-80
2024/03/17 12:34:28;;;;;;;2.33;0.40;;;12.80;68.60;;;;;;5042235;28;20041;-80
2024/03/17 12:36:56;;;;;;;2.28;0.40;;;13.50;68.60;;;;;;5043417;28;20069;-80
2024/03/17 12:39:25;;;;;;;2.40;0.40;;;13.50;69.80;;;;;;5000308;28;20038;-80
2024/03/17 12:42:03;;;;;;;1.73;0.28;;;13.60;70.10;;;;;;5011876;28;20072;-80
2024/03/17 12:44:34;;;;;;;1.70;0.20;;;13.10;69.20;;;;;;5043028;28;20036;-79
2024/03/17 12:47:02;;;;;;;2.42;0.20;;;13.70;65.70;;;;;;5010909;28;20042;-79
2024/03/17 12:49:31;;;;;;;2.55;0.25;;;13.70;65.30;;;;;;5038878;28;20041;-79
2024/03/17 12:51:59;;;;;;;0.98;0.20;;;13.60;65.50;;;;;;5042553;28;20033;-78
2024/03/17 12:54:30;;;;;;;1.67;0.40;;;13.60;67.50;;;;;;5037815;28;20037;-80
2024/03/17 13:00:33;;;;;;;2.30;0.30;;;13.70;65.30;;;;;;4990700;28;20070;-82
2024/03/17 13:03:03;;;;;;;1.70;0.30;;;13.90;65.20;;;;;;5025307;28;20052;-79
2024/03/17 13:05:31;;;;;;;1.23;0.30;;;13.80;64.60;;;;;;5042239;28;20052;-81
2024/03/17 13:08:01;;;;;;;1.20;0.28;;;13.70;66.90;;;;;;5043152;28;20045;-83
2024/03/17 13:10:32;;;;;;;1.30;0.30;;;13.10;67.20;;;;;;5057507;28;20127;-80